createdAt,value
2022-11-20T00:00:22.241Z,16.60
2022-11-20T00:02:52.289Z,15.68
2022-11-20T00:05:19.549Z,17.23
2022-11-20T00:07:46.636Z,16.77
2022-11-20T00:10:13.991Z,20.15
2022-11-20T00:12:41.335Z,13.98
2022-11-20T00:15:08.870Z,17.30
2022-11-20T00:17:36.056Z,16.52
2022-11-20T00:20:03.289Z,15.57
2022-11-20T00:22:30.594Z,15.25
2022-11-20T00:24:58.847Z,17.33
2022-11-20T00:27:26.011Z,16.52
2022-11-20T00:29:53.223Z,13.20
2022-11-20T00:32:20.324Z,17.88
2022-11-20T00:34:47.548Z,15.48
2022-11-20T00:37:14.845Z,17.70
2022-11-20T00:39:42.077Z,17.30
2022-11-20T00:42:09.273Z,18.48
2022-11-20T00:44:36.629Z,16.75
2022-11-20T00:47:03.830Z,19.33
2022-11-20T00:49:30.948Z,18.08
2022-11-20T00:51:58.058Z,19.98
2022-11-20T00:54:25.179Z,16.63
2022-11-20T00:56:54.471Z,17.85
2022-11-20T00:59:22.045Z,16.13
2022-11-20T01:01:49.509Z,15.07
2022-11-20T01:04:16.613Z,14.63
2022-11-20T01:06:43.721Z,14.77
2022-11-20T01:09:14.856Z,16.60
2022-11-20T01:11:44.110Z,16.35
2022-11-20T01:14:14.831Z,16.73
2022-11-20T01:16:43.519Z,14.88
2022-11-20T01:19:18.405Z,15.82
2022-11-20T01:21:46.433Z,16.90
2022-11-20T01:24:14.539Z,14.80
2022-11-20T01:26:42.993Z,14.65
2022-11-20T01:29:17.915Z,16.52
2022-11-20T01:31:45.685Z,15.57
2022-11-20T01:34:14.530Z,14.90
2022-11-20T01:36:43.072Z,16.70
2022-11-20T01:39:15.270Z,17.30
2022-11-20T01:42:07.037Z,12.23
2022-11-20T01:44:51.008Z,16.92
2022-11-20T01:47:22.293Z,17.52
2022-11-20T01:49:54.472Z,16.45
2022-11-20T01:52:21.676Z,19.05
2022-11-20T01:54:52.113Z,13.63
2022-11-20T01:57:19.831Z,14.50
2022-11-20T01:59:51.616Z,15.02
2022-11-20T02:02:18.795Z,16.38
2022-11-20T02:04:46.377Z,14.32
2022-11-20T02:07:13.605Z,14.57
2022-11-20T02:09:40.796Z,17.77
2022-11-20T02:12:28.139Z,17.80
2022-11-20T02:14:55.288Z,16.38
2022-11-20T02:17:22.544Z,14.75
2022-11-20T02:19:49.692Z,15.68
2022-11-20T02:22:21.232Z,13.85
2022-11-20T02:24:49.327Z,13.32
2022-11-20T02:27:17.383Z,16.08
2022-11-20T02:29:55.408Z,14.48
2022-11-20T02:32:27.221Z,13.35
2022-11-20T02:34:54.629Z,13.50
2022-11-20T02:37:22.164Z,14.65
2022-11-20T02:39:50.711Z,18.88
2022-11-20T02:42:18.221Z,17.27
2022-11-20T02:44:45.613Z,13.52
2022-11-20T02:47:12.743Z,16.63
2022-11-20T02:49:39.859Z,13.60
2022-11-20T02:52:07.042Z,14.13
2022-11-20T02:54:34.396Z,15.38
2022-11-20T02:57:01.583Z,15.88
2022-11-20T02:59:28.980Z,15.93
2022-11-20T03:01:56.127Z,15.48
2022-11-20T03:04:23.693Z,16.63
2022-11-20T03:06:51.033Z,17.25
2022-11-20T03:09:18.312Z,13.60
2022-11-20T03:11:45.635Z,17.23
2022-11-20T03:14:12.856Z,16.27
2022-11-20T03:16:41.372Z,13.52
2022-11-20T03:19:08.990Z,15.00
2022-11-20T03:21:36.451Z,17.90
2022-11-20T03:24:03.713Z,16.80
2022-11-20T03:26:30.932Z,18.17
2022-11-20T03:29:02.388Z,14.25
2022-11-20T03:31:31.342Z,15.25
2022-11-20T03:33:59.060Z,17.42
2022-11-20T03:36:26.464Z,18.55
2022-11-20T03:38:54.515Z,16.95
2022-11-20T03:41:25.379Z,15.27
2022-11-20T03:43:53.490Z,14.43
2022-11-20T03:46:20.700Z,14.82
2022-11-20T03:48:51.557Z,16.13
2022-11-20T03:51:23.276Z,15.48
2022-11-20T03:53:51.359Z,16.60
2022-11-20T03:56:19.547Z,15.63
2022-11-20T03:58:46.843Z,17.13
2022-11-20T04:01:18.632Z,14.60
2022-11-20T04:03:46.540Z,17.45
2022-11-20T04:06:15.595Z,14.95
2022-11-20T04:08:43.468Z,15.20
2022-11-20T04:11:10.728Z,17.15
2022-11-20T04:13:38.219Z,16.02
2022-11-20T04:16:06.144Z,13.75
2022-11-20T04:18:33.533Z,13.77
2022-11-20T04:21:00.972Z,14.98
2022-11-20T04:23:28.967Z,12.07
2022-11-20T04:25:56.305Z,12.98
2022-11-20T04:28:23.643Z,17.00
2022-11-20T04:30:50.872Z,15.45
2022-11-20T04:33:18.067Z,14.82
2022-11-20T04:35:46.657Z,13.88
2022-11-20T04:38:15.235Z,15.73
2022-11-20T04:40:42.340Z,14.60
2022-11-20T04:43:09.512Z,12.15
2022-11-20T04:45:36.662Z,13.68
2022-11-20T04:48:04.025Z,12.40
2022-11-20T04:50:31.228Z,17.67
2022-11-20T04:52:58.499Z,15.15
2022-11-20T04:55:25.658Z,13.35
2022-11-20T04:57:52.858Z,13.57
2022-11-20T05:00:20.174Z,16.00
2022-11-20T05:02:47.475Z,14.05
2022-11-20T05:05:14.737Z,16.98
2022-11-20T05:07:41.946Z,17.13
2022-11-20T05:10:09.360Z,12.55
2022-11-20T05:12:36.744Z,17.55
2022-11-20T05:15:04.759Z,12.30
2022-11-20T05:17:32.472Z,14.43
2022-11-20T05:19:59.675Z,14.65
2022-11-20T05:22:26.776Z,13.15
2022-11-20T05:24:53.930Z,15.60
2022-11-20T05:27:21.089Z,15.82
2022-11-20T05:29:48.348Z,13.90
2022-11-20T05:32:15.472Z,15.25
2022-11-20T05:34:42.591Z,12.88
2022-11-20T05:37:09.806Z,15.32
2022-11-20T05:39:36.997Z,16.13
2022-11-20T05:42:22.756Z,12.40
2022-11-20T05:44:49.906Z,13.48
2022-11-20T05:47:17.015Z,15.02
2022-11-20T05:49:44.280Z,12.98
2022-11-20T05:52:11.510Z,15.20
2022-11-20T05:54:38.816Z,15.18
2022-11-20T05:57:05.976Z,12.15
2022-11-20T05:59:33.139Z,12.07
2022-11-20T06:02:00.290Z,15.95
2022-11-20T06:04:27.385Z,11.70
2022-11-20T06:06:54.773Z,14.73
2022-11-20T06:09:22.100Z,16.27
2022-11-20T06:11:49.451Z,13.90
2022-11-20T06:14:16.656Z,14.90
2022-11-20T06:16:44.290Z,15.30
2022-11-20T06:19:11.627Z,15.45
2022-11-20T06:21:38.762Z,15.88
2022-11-20T06:24:06.211Z,14.48
2022-11-20T06:26:33.395Z,15.80
2022-11-20T06:29:00.533Z,12.68
2022-11-20T06:31:27.888Z,15.68
2022-11-20T06:33:55.100Z,16.45
2022-11-20T06:36:23.261Z,14.15
2022-11-20T06:38:50.576Z,14.18
2022-11-20T06:41:18.870Z,13.32
2022-11-20T06:43:46.484Z,15.15
2022-11-20T06:46:14.019Z,14.25
2022-11-20T06:48:41.603Z,14.35
2022-11-20T06:51:09.467Z,15.23
2022-11-20T06:53:36.879Z,11.88
2022-11-20T06:56:04.388Z,15.32
2022-11-20T06:58:32.863Z,18.00
2022-11-20T07:01:00.885Z,16.08
2022-11-20T07:03:28.296Z,13.32
2022-11-20T07:05:59.112Z,18.05
2022-11-20T07:08:26.694Z,10.80
2022-11-20T07:10:53.909Z,17.77
2022-11-20T07:13:21.090Z,16.25
2022-11-20T07:15:48.213Z,14.38
2022-11-20T07:18:15.285Z,15.65
2022-11-20T07:20:42.658Z,17.63
2022-11-20T07:23:09.795Z,16.67
2022-11-20T07:25:37.033Z,15.82
2022-11-20T07:28:04.740Z,15.32
2022-11-20T07:30:32.453Z,16.58
2022-11-20T07:32:59.816Z,16.00
2022-11-20T07:35:26.983Z,14.63
2022-11-20T07:37:54.194Z,14.45
2022-11-20T07:40:21.577Z,17.55
2022-11-20T07:42:49.781Z,14.45
2022-11-20T07:45:17.002Z,18.00
2022-11-20T07:47:44.152Z,14.65
2022-11-20T07:50:11.926Z,15.50
2022-11-20T07:52:39.173Z,12.38
2022-11-20T07:55:06.567Z,11.23
2022-11-20T07:57:33.862Z,21.48
2022-11-20T08:00:01.026Z,18.33
2022-11-20T08:02:28.669Z,17.85
2022-11-20T08:04:55.813Z,18.70
2022-11-20T08:07:23.002Z,22.58
2022-11-20T08:09:50.241Z,19.50
2022-11-20T08:12:38.194Z,20.05
2022-11-20T08:15:12.524Z,20.13
2022-11-20T08:17:40.131Z,22.00
2022-11-20T08:20:07.585Z,21.85
2022-11-20T08:22:34.777Z,25.48
2022-11-20T08:25:01.896Z,23.33
2022-11-20T08:27:29.094Z,18.90
2022-11-20T08:29:56.473Z,21.85
2022-11-20T08:32:23.650Z,22.23
2022-11-20T08:34:50.862Z,24.77
2022-11-20T08:37:18.140Z,20.10
2022-11-20T08:39:45.424Z,23.00
2022-11-20T08:42:12.549Z,22.23
2022-11-20T08:44:39.651Z,23.65
2022-11-20T08:47:06.962Z,21.75
2022-11-20T08:49:35.279Z,26.10
2022-11-20T08:52:02.653Z,23.45
2022-11-20T08:54:29.754Z,22.48
2022-11-20T08:56:59.726Z,19.45
2022-11-20T08:59:50.858Z,21.85
2022-11-20T09:02:14.274Z,24.52
2022-11-20T09:04:41.780Z,22.35
2022-11-20T09:07:09.040Z,21.25
2022-11-20T09:09:36.237Z,25.55
2022-11-20T09:12:03.368Z,24.65
2022-11-20T09:14:31.203Z,21.17
2022-11-20T09:16:58.590Z,26.30
2022-11-20T09:19:40.570Z,21.55
2022-11-20T09:22:08.214Z,21.20
2022-11-20T09:24:35.424Z,26.40
2022-11-20T09:27:06.251Z,26.13
2022-11-20T09:29:33.545Z,23.83
2022-11-20T09:32:01.657Z,25.92
2022-11-20T09:34:29.011Z,23.88
2022-11-20T09:37:01.643Z,24.98
2022-11-20T09:39:31.990Z,15.75
2022-11-20T09:42:18.067Z,25.75
2022-11-20T09:44:55.622Z,23.30
2022-11-20T09:47:28.841Z,25.98
2022-11-20T09:50:02.079Z,23.60
2022-11-20T09:52:47.762Z,19.85
2022-11-20T09:55:16.209Z,20.85
2022-11-20T09:57:46.191Z,27.00
2022-11-20T10:00:17.295Z,22.85
2022-11-20T10:02:53.975Z,23.60
2022-11-20T10:05:24.843Z,24.55
2022-11-20T10:07:56.451Z,24.20
2022-11-20T10:10:52.338Z,25.55
2022-11-20T10:13:41.902Z,26.85
2022-11-20T10:16:42.425Z,23.15
2022-11-20T10:19:18.812Z,24.85
2022-11-20T10:21:49.208Z,23.73
2022-11-20T10:24:35.219Z,23.75
2022-11-20T10:27:17.644Z,27.38
2022-11-20T10:29:49.552Z,27.10
2022-11-20T10:32:18.322Z,22.90
2022-11-20T10:34:48.340Z,27.38
2022-11-20T10:37:21.714Z,26.67
2022-11-20T10:39:55.896Z,25.08
2022-11-20T10:42:29.818Z,23.10
2022-11-20T10:45:06.665Z,25.75
2022-11-20T10:47:34.680Z,26.48
2022-11-20T10:50:07.666Z,29.70
2022-11-20T10:52:41.200Z,25.65
2022-11-20T10:55:27.079Z,28.02
2022-11-20T10:58:14.377Z,25.67
2022-11-20T11:00:41.597Z,32.22
2022-11-20T11:03:24.277Z,28.10
2022-11-20T11:06:29.888Z,29.05
2022-11-20T11:08:58.501Z,27.83
2022-11-20T11:11:27.947Z,28.13
2022-11-20T11:13:55.131Z,24.35
2022-11-20T11:16:26.603Z,29.00
2022-11-20T11:18:53.815Z,26.77
2022-11-20T11:21:25.132Z,27.70
2022-11-20T11:24:19.693Z,26.83
2022-11-20T11:27:16.818Z,28.88
2022-11-20T11:29:44.559Z,28.58
2022-11-20T11:32:21.609Z,27.90
2022-11-20T11:35:08.757Z,26.42
2022-11-20T11:37:36.945Z,33.28
2022-11-20T11:42:58.503Z,30.88
2022-11-20T11:45:26.069Z,31.48
2022-11-20T11:47:54.293Z,31.65
2022-11-20T11:50:28.939Z,31.50
2022-11-20T11:53:14.773Z,31.02
2022-11-20T11:55:44.803Z,31.10
2022-11-20T11:58:26.944Z,36.90
2022-11-20T12:01:26.366Z,22.13
2022-11-20T12:04:02.802Z,45.92
2022-11-20T12:06:32.363Z,41.42
2022-11-20T12:09:02.897Z,37.65
2022-11-20T12:11:47.011Z,40.30
2022-11-20T12:14:34.428Z,43.42
2022-11-20T12:17:02.457Z,63.00
2022-11-20T12:19:31.508Z,46.50
2022-11-20T12:22:05.011Z,43.90
2022-11-20T12:24:45.802Z,62.42
2022-11-20T12:27:31.499Z,41.85
2022-11-20T12:30:12.639Z,40.10
2022-11-20T12:32:58.777Z,25.08
2022-11-20T12:35:45.031Z,44.58
2022-11-20T12:38:18.305Z,40.80
2022-11-20T12:40:45.730Z,34.42
2022-11-20T12:43:34.777Z,30.63
2022-11-20T12:46:10.795Z,23.75
2022-11-20T12:48:46.417Z,31.75
2022-11-20T12:51:20.124Z,42.13
2022-11-20T12:53:53.276Z,27.30
2022-11-20T12:56:28.379Z,23.58
2022-11-20T12:59:12.703Z,30.67
2022-11-20T13:01:49.271Z,34.15
2022-11-20T13:04:22.707Z,25.55
2022-11-20T13:06:50.723Z,31.05
2022-11-20T13:09:19.903Z,24.33
2022-11-20T13:11:51.960Z,29.02
2022-11-20T13:14:22.405Z,36.53
2022-11-20T13:17:09.168Z,28.25
2022-11-20T13:19:36.612Z,39.97
2022-11-20T13:22:03.846Z,32.72
2022-11-20T13:24:32.422Z,44.10
2022-11-20T13:27:05.970Z,36.90
2022-11-20T13:29:34.027Z,33.65
2022-11-20T13:32:18.450Z,28.35
2022-11-20T13:34:55.056Z,25.17
2022-11-20T13:37:30.121Z,29.45
2022-11-20T13:40:09.699Z,34.22
2022-11-20T13:42:39.599Z,27.60
2022-11-20T13:45:12.116Z,39.90
2022-11-20T13:47:39.562Z,39.53
2022-11-20T13:50:10.521Z,41.75
2022-11-20T13:52:46.600Z,34.80
2022-11-20T13:55:19.777Z,36.97
2022-11-20T13:58:01.582Z,35.53
2022-11-20T14:00:28.863Z,23.55
2022-11-20T14:03:08.542Z,48.03
2022-11-20T14:05:37.818Z,31.00
2022-11-20T14:10:32.708Z,31.05
2022-11-20T14:13:00.196Z,26.58
2022-11-20T14:15:31.814Z,45.75
2022-11-20T14:17:59.376Z,48.65
2022-11-20T14:20:28.790Z,30.85
2022-11-20T14:22:56.820Z,42.03
2022-11-20T14:25:28.066Z,53.78
2022-11-20T14:27:56.605Z,51.40
2022-11-20T14:30:25.960Z,42.78
2022-11-20T14:32:54.715Z,32.35
2022-11-20T14:35:25.065Z,41.08
2022-11-20T14:37:52.928Z,31.40
2022-11-20T14:40:38.177Z,31.92
2022-11-20T14:43:38.845Z,46.67
2022-11-20T14:46:08.268Z,37.15
2022-11-20T14:48:40.125Z,40.60
2022-11-20T14:51:07.351Z,38.75
2022-11-20T14:53:34.504Z,43.47
2022-11-20T14:56:03.156Z,37.45
2022-11-20T14:58:32.564Z,41.05
2022-11-20T15:01:01.698Z,44.67
2022-11-20T15:03:36.081Z,43.67
2022-11-20T15:06:03.716Z,46.13
2022-11-20T15:08:30.935Z,33.53
2022-11-20T15:10:58.443Z,47.22
2022-11-20T15:13:31.932Z,41.20
2022-11-20T15:16:00.359Z,49.08
2022-11-20T15:18:33.039Z,41.72
2022-11-20T15:21:03.088Z,41.67
2022-11-20T15:23:30.839Z,36.78
2022-11-20T15:25:58.377Z,36.55
2022-11-20T15:28:29.188Z,35.78
2022-11-20T15:30:57.494Z,32.95
2022-11-20T15:33:24.768Z,28.23
2022-11-20T15:35:52.107Z,18.67
2022-11-20T15:38:19.235Z,31.10
2022-11-20T15:40:46.883Z,23.92
2022-11-20T15:43:14.455Z,32.75
2022-11-20T15:45:49.321Z,32.70
2022-11-20T15:48:23.802Z,36.47
2022-11-20T15:51:09.727Z,26.23
2022-11-20T15:53:39.628Z,30.45
2022-11-20T15:56:06.959Z,27.27
2022-11-20T15:58:34.109Z,32.80
2022-11-20T16:01:01.269Z,23.02
2022-11-20T16:03:28.507Z,30.40
2022-11-20T16:05:55.692Z,27.88
2022-11-20T16:08:23.155Z,31.27
2022-11-20T16:10:50.333Z,28.73
2022-11-20T16:13:37.544Z,27.65
2022-11-20T16:16:11.072Z,37.08
2022-11-20T16:18:38.343Z,35.70
2022-11-20T16:21:06.729Z,24.42
2022-11-20T16:23:34.109Z,26.70
2022-11-20T16:26:01.362Z,30.50
2022-11-20T16:28:28.527Z,29.48
2022-11-20T16:30:55.657Z,29.23
2022-11-20T16:33:22.989Z,34.38
2022-11-20T16:35:50.108Z,29.15
2022-11-20T16:38:17.245Z,32.53
2022-11-20T16:40:44.392Z,39.75
2022-11-20T16:43:12.677Z,39.45
2022-11-20T16:45:43.416Z,25.92
2022-11-20T16:48:14.488Z,36.72
2022-11-20T16:50:49.125Z,26.02
2022-11-20T16:53:16.736Z,30.85
2022-11-20T16:55:44.331Z,36.13
2022-11-20T16:58:11.480Z,23.60
2022-11-20T17:00:39.385Z,36.05
2022-11-20T17:03:07.104Z,29.58
2022-11-20T17:05:35.024Z,28.33
2022-11-20T17:08:02.476Z,57.25
2022-11-20T17:10:30.757Z,37.55
2022-11-20T17:12:57.947Z,56.42
2022-11-20T17:15:25.096Z,44.33
2022-11-20T17:17:52.206Z,43.17
2022-11-20T17:20:19.368Z,83.55
2022-11-20T17:22:46.717Z,45.75
2022-11-20T17:25:13.985Z,57.92
2022-11-20T17:27:41.193Z,30.70
2022-11-20T17:30:08.727Z,38.45
2022-11-20T17:32:35.851Z,42.67
2022-11-20T17:35:03.310Z,37.50
2022-11-20T17:37:30.463Z,41.63
2022-11-20T17:39:57.616Z,18.80
2022-11-20T17:42:29.428Z,34.50
2022-11-20T17:44:58.762Z,36.90
2022-11-20T17:47:26.322Z,49.60
2022-11-20T17:49:55.328Z,35.67
2022-11-20T17:52:23.040Z,43.35
2022-11-20T17:54:50.272Z,40.88
2022-11-20T17:57:35.986Z,37.42
2022-11-20T18:00:03.296Z,35.33
2022-11-20T18:02:30.399Z,29.42
2022-11-20T18:04:57.880Z,31.48
2022-11-20T18:07:25.075Z,40.88
2022-11-20T18:09:52.506Z,30.13
2022-11-20T18:12:21.867Z,36.45
2022-11-20T18:14:49.011Z,47.58
2022-11-20T18:17:16.348Z,37.70
2022-11-20T18:19:51.565Z,34.50
2022-11-20T18:22:31.962Z,37.17
2022-11-20T18:24:59.635Z,39.38
2022-11-20T18:27:26.830Z,45.05
2022-11-20T18:29:54.077Z,45.50
2022-11-20T18:32:22.028Z,45.08
2022-11-20T18:34:49.263Z,59.58
2022-11-20T18:37:16.637Z,37.85
2022-11-20T18:39:43.844Z,41.72
2022-11-20T18:42:33.508Z,35.83
2022-11-20T18:45:02.245Z,39.20
2022-11-20T18:47:30.837Z,62.10
2022-11-20T18:49:59.283Z,48.38
2022-11-20T18:52:27.923Z,35.83
2022-11-20T18:54:55.567Z,48.67
2022-11-20T18:57:24.305Z,36.70
2022-11-20T18:59:51.560Z,29.40
2022-11-20T19:02:20.205Z,50.50
2022-11-20T19:04:47.546Z,42.40
2022-11-20T19:07:15.769Z,40.65
2022-11-20T19:09:43.596Z,44.47
2022-11-20T19:12:11.658Z,41.17
2022-11-20T19:14:39.007Z,33.70
2022-11-20T19:17:07.130Z,38.38
2022-11-20T19:19:34.769Z,36.47
2022-11-20T19:22:01.989Z,37.90
2022-11-20T19:24:29.471Z,29.35
2022-11-20T19:26:56.810Z,34.83
2022-11-20T19:29:25.100Z,39.03
2022-11-20T19:31:52.554Z,44.92
2022-11-20T19:34:19.746Z,29.50
2022-11-20T19:36:47.065Z,25.52
2022-11-20T19:39:15.779Z,38.88
2022-11-20T19:41:43.283Z,41.60
2022-11-20T19:44:12.559Z,27.35
2022-11-20T19:49:10.169Z,36.03
2022-11-20T19:51:38.367Z,42.92
2022-11-20T19:54:07.010Z,40.22
2022-11-20T19:56:34.864Z,31.30
2022-11-20T19:59:02.345Z,40.58
2022-11-20T20:01:30.852Z,34.97
2022-11-20T20:04:04.332Z,39.15
2022-11-20T20:06:32.020Z,38.42
2022-11-20T20:09:03.994Z,40.85
2022-11-20T20:11:31.807Z,38.45
2022-11-20T20:14:01.158Z,38.28
2022-11-20T20:16:28.870Z,37.85
2022-11-20T20:18:57.566Z,35.28
2022-11-20T20:21:24.953Z,37.53
2022-11-20T20:23:55.561Z,29.95
2022-11-20T20:26:23.624Z,37.42
2022-11-20T20:28:50.877Z,35.80
2022-11-20T20:31:19.481Z,32.97
2022-11-20T20:33:47.023Z,36.90
2022-11-20T20:36:15.311Z,30.92
2022-11-20T20:38:43.334Z,37.20
2022-11-20T20:41:10.789Z,33.15
2022-11-20T20:44:13.816Z,36.90
2022-11-20T20:46:41.676Z,33.58
2022-11-20T20:49:08.894Z,34.85
2022-11-20T20:51:35.980Z,32.80
2022-11-20T20:54:03.523Z,33.50
2022-11-20T20:56:30.751Z,38.28
2022-11-20T20:58:57.967Z,36.97
2022-11-20T21:01:28.622Z,29.25
2022-11-20T21:03:56.241Z,36.88
2022-11-20T21:06:23.370Z,36.22
2022-11-20T21:08:50.803Z,39.75
2022-11-20T21:11:19.068Z,38.00
2022-11-20T21:13:47.058Z,34.05
2022-11-20T21:16:15.141Z,35.08
2022-11-20T21:18:42.354Z,32.38
2022-11-20T21:21:30.819Z,33.10
2022-11-20T21:23:58.002Z,33.30
2022-11-20T21:26:25.161Z,37.90
2022-11-20T21:28:52.450Z,35.22
2022-11-20T21:31:27.368Z,39.88
2022-11-20T21:33:55.545Z,36.58
2022-11-20T21:36:23.854Z,37.13
2022-11-20T21:38:51.980Z,37.85
2022-11-20T21:41:19.160Z,35.75
2022-11-20T21:43:51.570Z,33.15
2022-11-20T21:46:26.214Z,37.15
2022-11-20T21:48:53.617Z,36.90
2022-11-20T21:51:24.603Z,33.08
2022-11-20T21:53:53.398Z,38.78
2022-11-20T21:56:21.300Z,41.13
2022-11-20T21:58:48.917Z,33.83
2022-11-20T22:01:19.311Z,38.20
2022-11-20T22:03:50.409Z,34.05
2022-11-20T22:06:17.972Z,40.90
2022-11-20T22:08:45.268Z,37.22
2022-11-20T22:11:13.563Z,34.95
2022-11-20T22:13:59.978Z,34.03
2022-11-20T22:16:27.118Z,34.05
2022-11-20T22:18:55.336Z,38.58
2022-11-20T22:21:23.947Z,36.10
2022-11-20T22:23:51.499Z,36.40
2022-11-20T22:26:19.890Z,40.53
2022-11-20T22:28:48.639Z,40.17
2022-11-20T22:31:16.173Z,36.53
2022-11-20T22:33:43.584Z,35.33
2022-11-20T22:36:11.937Z,36.63
2022-11-20T22:38:39.792Z,37.70
2022-11-20T22:41:08.348Z,36.72
2022-11-20T22:43:35.678Z,34.85
2022-11-20T22:46:04.395Z,39.03
2022-11-20T22:48:31.672Z,39.08
2022-11-20T22:51:02.432Z,36.67
2022-11-20T22:53:29.635Z,35.83
2022-11-20T22:55:56.719Z,35.53
2022-11-20T22:58:23.826Z,36.83
2022-11-20T23:00:51.187Z,36.28
2022-11-20T23:03:18.343Z,32.63
2022-11-20T23:05:45.563Z,34.40
2022-11-20T23:08:12.797Z,35.10
2022-11-20T23:10:40.034Z,33.92
2022-11-20T23:13:07.148Z,33.10
2022-11-20T23:15:34.779Z,38.28
2022-11-20T23:18:01.892Z,33.25
2022-11-20T23:20:29.278Z,38.90
2022-11-20T23:22:56.489Z,29.30
2022-11-20T23:25:23.635Z,34.33
2022-11-20T23:27:50.939Z,34.83
2022-11-20T23:30:18.114Z,38.78
2022-11-20T23:32:45.408Z,38.67
2022-11-20T23:35:12.523Z,41.50
2022-11-20T23:37:39.644Z,42.25
2022-11-20T23:40:07.080Z,35.25
2022-11-20T23:42:34.444Z,39.60
2022-11-20T23:45:01.719Z,35.60
2022-11-20T23:47:28.838Z,41.50
2022-11-20T23:49:55.979Z,39.47
2022-11-20T23:52:24.899Z,27.70
2022-11-20T23:54:51.964Z,37.00
2022-11-20T23:57:19.317Z,37.88
2022-11-20T23:59:46.387Z,42.15
